A- A+ FrançaisEnglishEspañol中国

最近的 SCAR Arica ChacallutaLFBT Tarbes-Lourdes-PyrénéesMMZP ZapopanMMGL GuadalajaraMGGT GuatemalaVIDN Dehrandun

飞行员的航空天气,使用METAR(气象机场报告)进行的飞行准备和TAF(终端机场预报:针对以下情况的短期天气预报)航空)。 以及其他资源,例如VAC(目视进近图)和NOTAM(通知飞行员)以进行预试飞行.

METAR, TAF, VAC, NOTAM Crisp Co Cordele机场 (美国) / OACI KCKF

它位于附近 Cordele, Cordele 在 2.9 km, Vienna 在 12 km, Rochelle 在 30 km, Unadilla 在 31 km, Ashburn 在 33 km, Pennington 在 35 km, Arles 在 42 km, Montezuma 在 43 km, Oglethorpe 在 43 km, Hawkinsville 在 43 km,

机场的高度为 Crisp Co Cordele机场的

94 m = 308 ft

附近的机场Crisp Co Cordele机场的

跑道 Crisp Co Cordele机场的

目前的天气 Crisp Co Cordele机场的 - KCKF

ciel dégagé
21°C

Vent 0 km/h

可提供5天天气预报 Cordele 在 2.9 km, Vienna 在 12 km, Rochelle 在 30 km, Unadilla 在 31 km, Ashburn 在 33 km, Pennington 在 35 km, Arles 在 42 km, Montezuma 在 43 km, Oglethorpe 在 43 km, Hawkinsville 在 43 km,

METAR Crisp Co Cordele机场的 - KCKF

KCKF 291035Z AUTO 00000KT 10SM SCT018 21/20 A3020 RMK AO2 T02060195

Crisp Co Cordele机场METAR解码 (美国)

KCKF机场发行的METAR日期2019年09月29日至10:35 GMT. 这是一个自动生成的METAR, 警告:此METAR已过期, 已于 282 天 16 小时 21 分钟.

可见度为16.1 km = 10 sm.

温度为21°C = 70 °F 露点为20°C = 68 °F 。 这相当于94%的相对湿度。.

QNH是1023 hPa = 30.21 inHg

的风0 kt = 0 km/h, 风向为0°.

云:距离1800 ft = 550 m.

备注 AO2 T02060195

TAF Crisp Co Cordele机场的 - KCKF

没有TAF

Crisp Co Cordele机场的NOTAM

提供的NOTAM不能保证其时事性。 在将其用于飞行准备或在飞行期间使用之前,飞行员是唯一负责验证其有效性的人员。

没有通知

数据源